Animas, NM

8:36 AM MDT on August 20, 2014 (GMT -0600)
Rodeo, NM | Change Station
CLOSE
Current Station
Personal Weather Station
Location: Rodeo, NM
Elevation: 4236 ft
Nearby Weather Stations

Elev 4236 ft 31.80 °N, 109.02 °W | Updated 11 seconds ago

Clear
Clear
65.5 °F
Feels Like 65.5 °F
N
4.9
Wind Variable Wind from SSW
Gusts 5.0 mph

Today
High -- | Low -- °F
--% Chance of Precip.
Yesterday
High -- | Low -- °F
Precip. -- in
6:43 AM 7:53 PM
Waning Crescent, 21% visible
Pressure 29.95 in
Visibility 10.0 miles
Clouds Clear
Dew Point 61 °F
Humidity 86%
Rainfall 0.00 in
Snow Depth Not available.
UV 1 out of 12
Pollen 6.40 out of 12
Air Quality Not available.
Flu Activity Not available.
METAR KDUG 201356Z AUTO 00000KT 10SM CLR 17/16 A3010 RMK AO2 SLP141 T01720161

More Conditions Fewer Conditions

Pressure 29.95 in
Visibility 10.0 miles
Clouds Clear
Dew Point 61 °F
Humidity 86%
Rainfall 0.00 in
Snow Depth Not available.
UV 1 out of 12
Pollen 6.40 out of 12
Air Quality Not available.
Flu Activity Not available.
METAR KDUG 201356Z AUTO 00000KT 10SM CLR 17/16 A3010 RMK AO2 SLP141 T01720161

More Conditions Fewer Conditions

10-Day Weather Forecast

Almanac

Astronomy

Aug. 20, 2014 Rise Set
Actual Time 6:43 AM MDT 7:53 PM MDT
Civil Twilight 6:17 AM MDT 8:18 PM MDT
Nautical Twilight 5:47 AM MDT 8:49 PM MDT
Astronomical Twilight 5:16 AM MDT 9:20 PM MDT
Moon 2:32 AM MDT 4:34 PM MDT
Length of Visible Light 14h 01m
Length of Day
13h 10m
Tomorrow will be 1m 47s shorter.
Waning Crescent, 21% of the Moon is Illuminated
Today
Waning Crescent
Aug 25
New
Sep 2
First Quarter
Sep 8
Full
Sep 15
Last Quarter

Today's Extremes

State Highs State Lows

Community

WunderPhotos

Upload Photos

1,745,654 photos uploaded!

Nearby

Snow Depth

Station Depth Elevation
McKnight Cabin 0 in 9240 ft
Silver Creek Divide 1 in 9000 ft
Sierra Blanca 2 in 10280 ft
Senorita Divide #2 0 in 8600 ft
Quemazon 1 in 9500 ft

Earthquake Activity

City Distance Mag. Time & Date
Lordsburg, New Mexico 45 miles 3.1 10:13 PM MDT
2014-08-15
Minimum magnitude displayed is 2.5.

Coastal Water Temperatures

Place Temperature
No Stations Reporting

Nearby Weather Stations